createdAt,value
2023-03-06T00:00:58.984Z,89.7
2023-03-06T00:02:56.294Z,89.7
2023-03-06T00:04:55.668Z,89.7
2023-03-06T00:06:55.554Z,90.2
2023-03-06T00:08:55.357Z,90.2
2023-03-06T00:10:56.117Z,90.2
2023-03-06T00:12:57.930Z,89.6
2023-03-06T00:14:55.033Z,89.6
2023-03-06T00:16:55.423Z,89.6
2023-03-06T00:18:54.634Z,89.6
2023-03-06T00:20:54.483Z,89.6
2023-03-06T00:22:56.186Z,89.6
2023-03-06T00:24:54.239Z,89.6
2023-03-06T00:26:54.031Z,90.3
2023-03-06T00:28:53.970Z,90.3
2023-03-06T00:30:53.711Z,90.3
2023-03-06T00:32:53.914Z,90
2023-03-06T00:34:54.600Z,90
2023-03-06T00:36:53.389Z,90
2023-03-06T00:38:53.225Z,90
2023-03-06T00:40:53.093Z,90
2023-03-06T00:42:53.348Z,90.2
2023-03-06T00:44:52.976Z,90.2
2023-03-06T00:46:52.613Z,90.2
2023-03-06T00:48:54.625Z,90.2
2023-03-06T00:50:52.349Z,90.2
2023-03-06T00:52:52.262Z,90.3
2023-03-06T00:54:52.395Z,90.3
2023-03-06T00:56:51.924Z,90.3
2023-03-06T00:58:51.834Z,90.3
2023-03-06T01:00:51.746Z,90.3
2023-03-06T01:02:51.487Z,91
2023-03-06T01:04:51.423Z,91
2023-03-06T01:06:51.310Z,91
2023-03-06T01:08:51.339Z,91.6
2023-03-06T01:10:51.002Z,91.6
2023-03-06T01:12:52.113Z,91.6
2023-03-06T01:14:50.988Z,91.6
2023-03-06T01:16:50.998Z,91.6
2023-03-06T01:18:50.527Z,91.6
2023-03-06T01:20:50.261Z,92.2
2023-03-06T01:22:50.271Z,92.2
2023-03-06T01:24:49.967Z,92.2
2023-03-06T01:26:49.804Z,92.2
2023-03-06T01:28:49.618Z,92.2
2023-03-06T01:30:49.677Z,92.2
2023-03-06T01:32:49.360Z,92.6
2023-03-06T01:34:49.546Z,92.6
2023-03-06T01:36:49.478Z,92.6
2023-03-06T01:38:48.830Z,92.6
2023-03-06T01:40:48.798Z,92.6
2023-03-06T01:42:49.689Z,91.7
2023-03-06T01:45:05.862Z,91.7
2023-03-06T01:46:48.706Z,91.6
2023-03-06T01:48:51.442Z,91.6
2023-03-06T01:50:48.099Z,91.6
2023-03-06T01:52:52.502Z,92.2
2023-03-06T01:54:51.509Z,92.2
2023-03-06T01:56:52.805Z,92.2
2023-03-06T01:58:47.691Z,92.2
2023-03-06T02:00:47.257Z,92.2
2023-03-06T02:02:52.492Z,92.6
2023-03-06T02:04:47.396Z,92.6
2023-03-06T02:06:47.761Z,92.6
2023-03-06T02:08:47.393Z,91.7
2023-03-06T02:10:58.060Z,91.7
2023-03-06T02:12:47.864Z,91.7
2023-03-06T02:14:47.198Z,91.7
2023-03-06T02:16:46.968Z,91.7
2023-03-06T02:18:46.114Z,92.3
2023-03-06T02:20:50.658Z,92.3
2023-03-06T02:22:51.329Z,92.1
2023-03-06T02:24:52.583Z,91.8
2023-03-06T02:26:47.516Z,91.8
2023-03-06T02:28:45.696Z,91.8
2023-03-06T02:30:47.134Z,91.8
2023-03-06T02:32:44.639Z,91.7
2023-03-06T02:34:56.067Z,91.7
2023-03-06T02:36:48.473Z,91.7
2023-03-06T02:38:49.959Z,91.7
2023-03-06T02:40:47.759Z,92.3
2023-03-06T02:42:48.881Z,92
2023-03-06T02:44:43.936Z,92
2023-03-06T02:46:43.661Z,92
2023-03-06T02:48:43.419Z,92
2023-03-06T02:50:44.581Z,92
2023-03-06T02:52:43.095Z,92.1
2023-03-06T02:54:43.215Z,92.1
2023-03-06T02:56:42.905Z,92.1
2023-03-06T02:58:42.975Z,92.1
2023-03-06T03:00:43.714Z,92.1
2023-03-06T03:02:43.420Z,93.1
2023-03-06T03:04:42.739Z,93.1
2023-03-06T03:06:42.291Z,93.6
2023-03-06T03:08:42.417Z,93.6
2023-03-06T03:10:41.842Z,93.6
2023-03-06T03:12:42.238Z,93.6
2023-03-06T03:14:41.565Z,93.6
2023-03-06T03:16:41.299Z,94.1
2023-03-06T03:18:42.064Z,94.1
2023-03-06T03:20:41.932Z,94.1
2023-03-06T03:22:41.212Z,93.9
2023-03-06T03:24:40.715Z,93.5
2023-03-06T03:26:44.235Z,93.5
2023-03-06T03:28:40.711Z,93.5
2023-03-06T03:30:41.579Z,94.1
2023-03-06T03:32:40.114Z,94
2023-03-06T03:34:39.993Z,93.6
2023-03-06T03:36:40.949Z,93.6
2023-03-06T03:38:39.598Z,93.6
2023-03-06T03:40:39.391Z,93.6
2023-03-06T03:42:39.766Z,93.8
2023-03-06T03:44:39.109Z,93.8
2023-03-06T03:46:42.818Z,93.8
2023-03-06T03:48:39.063Z,93.8
2023-03-06T03:50:38.761Z,93.8
2023-03-06T03:52:38.693Z,93.1
2023-03-06T03:54:38.595Z,93.1
2023-03-06T03:56:42.455Z,93.1
2023-03-06T03:58:38.619Z,93.1
2023-03-06T04:00:42.282Z,93.1
2023-03-06T04:02:43.517Z,93.5
2023-03-06T04:04:37.938Z,93.5
2023-03-06T04:06:38.347Z,92.9
2023-03-06T04:08:37.345Z,92.9
2023-03-06T04:10:37.398Z,93.4
2023-03-06T04:12:37.426Z,93.6
2023-03-06T04:14:37.097Z,93.6
2023-03-06T04:16:36.754Z,93.6
2023-03-06T04:18:38.784Z,93.6
2023-03-06T04:20:36.787Z,93.6
2023-03-06T04:22:36.245Z,92.9
2023-03-06T04:24:36.371Z,92.9
2023-03-06T04:26:36.248Z,92.9
2023-03-06T04:28:35.848Z,92.9
2023-03-06T04:30:36.487Z,92.9
2023-03-06T04:32:36.117Z,93.1
2023-03-06T04:34:35.316Z,93.1
2023-03-06T04:36:39.302Z,93.1
2023-03-06T04:38:37.071Z,93.1
2023-03-06T04:40:36.144Z,93.6
2023-03-06T04:42:34.653Z,93.4
2023-03-06T04:44:35.062Z,93.4
2023-03-06T04:46:35.104Z,93
2023-03-06T04:48:34.312Z,93
2023-03-06T04:50:34.195Z,93
2023-03-06T04:52:34.231Z,92.8
2023-03-06T04:54:33.977Z,92.4
2023-03-06T04:56:33.802Z,92.5
2023-03-06T04:58:33.705Z,91.4
2023-03-06T05:00:33.583Z,91.4
2023-03-06T05:02:33.692Z,91.8
2023-03-06T05:04:33.584Z,90.7
2023-03-06T05:06:33.097Z,90.7
2023-03-06T05:08:32.998Z,91.5
2023-03-06T05:10:33.063Z,89.7
2023-03-06T05:12:35.580Z,90.4
2023-03-06T05:14:33.025Z,90.1
2023-03-06T05:16:32.685Z,88.9
2023-03-06T05:18:33.400Z,89.8
2023-03-06T05:20:32.316Z,89.8
2023-03-06T05:22:33.021Z,89.2
2023-03-06T05:24:32.163Z,89.4
2023-03-06T05:26:32.036Z,89.4
2023-03-06T05:28:31.902Z,88.8
2023-03-06T05:30:31.926Z,88.8
2023-03-06T05:32:33.831Z,89.2
2023-03-06T05:34:31.590Z,89.2
2023-03-06T05:36:31.495Z,89.2
2023-03-06T05:38:32.261Z,89.2
2023-03-06T05:40:31.285Z,89.2
2023-03-06T05:42:31.231Z,88.6
2023-03-06T05:44:32.912Z,89.4
2023-03-06T05:46:31.097Z,87.8
2023-03-06T05:48:31.627Z,88.5
2023-03-06T05:50:30.945Z,87.9
2023-03-06T05:52:30.675Z,88.8
2023-03-06T05:54:31.022Z,87
2023-03-06T05:56:30.461Z,86.1
2023-03-06T05:58:32.015Z,86.1
2023-03-06T06:00:30.334Z,86.1
2023-03-06T06:02:30.347Z,85.2
2023-03-06T06:04:30.137Z,84.8
2023-03-06T06:06:30.038Z,86.2
2023-03-06T06:08:30.108Z,85
2023-03-06T06:10:29.882Z,84.8
2023-03-06T06:12:30.330Z,84.2
2023-03-06T06:14:32.177Z,85.7
2023-03-06T06:16:29.719Z,84.8
2023-03-06T06:18:29.581Z,85.8
2023-03-06T06:20:29.694Z,83.8
2023-03-06T06:22:29.485Z,83
2023-03-06T06:24:30.650Z,82.9
2023-03-06T06:26:29.260Z,82.9
2023-03-06T06:28:30.120Z,83.6
2023-03-06T06:30:29.953Z,82.1
2023-03-06T06:32:29.101Z,82.8
2023-03-06T06:34:29.050Z,83.2
2023-03-06T06:36:29.174Z,82.1
2023-03-06T06:38:28.770Z,81.8
2023-03-06T06:40:28.670Z,81.8
2023-03-06T06:42:34.615Z,81.7
2023-03-06T06:44:28.614Z,81.7
2023-03-06T06:47:10.782Z,81.2
2023-03-06T06:48:28.416Z,81.8
2023-03-06T06:50:28.443Z,81
2023-03-06T06:52:28.217Z,80.1
2023-03-06T06:54:28.288Z,80.1
2023-03-06T06:56:28.032Z,80.8
2023-03-06T06:58:28.076Z,80.1
2023-03-06T07:00:28.249Z,80.7
2023-03-06T07:02:27.904Z,80.3
2023-03-06T07:04:27.790Z,79.7
2023-03-06T07:06:27.733Z,80.4
2023-03-06T07:08:27.619Z,81.6
2023-03-06T07:10:27.836Z,80.7
2023-03-06T07:12:27.377Z,80.2
2023-03-06T07:14:27.290Z,81.1
2023-03-06T07:16:27.406Z,80.5
2023-03-06T07:18:27.304Z,80.4
2023-03-06T07:20:27.261Z,81.6
2023-03-06T07:22:28.140Z,80.6
2023-03-06T07:24:27.087Z,79.4
2023-03-06T07:26:27.486Z,79.4
2023-03-06T07:28:26.829Z,79.4
2023-03-06T07:30:26.774Z,79.4
2023-03-06T07:32:26.757Z,79.6
2023-03-06T07:34:26.601Z,80.3
2023-03-06T07:36:26.639Z,79.4
2023-03-06T07:38:26.548Z,78.6
2023-03-06T07:40:27.524Z,80.1
2023-03-06T07:42:28.403Z,80.1
2023-03-06T07:44:26.819Z,80.7
2023-03-06T07:46:26.680Z,79.8
2023-03-06T07:48:26.749Z,79.1
2023-03-06T07:50:26.462Z,79.1
2023-03-06T07:52:26.140Z,78.1
2023-03-06T07:54:26.172Z,77.1
2023-03-06T07:56:26.017Z,77.1
2023-03-06T07:58:26.391Z,78
2023-03-06T08:00:25.972Z,77.3
2023-03-06T08:02:25.798Z,79.4
2023-03-06T08:04:26.715Z,77.9
2023-03-06T08:06:27.096Z,77.6
2023-03-06T08:08:25.683Z,78.1
2023-03-06T08:10:25.563Z,77.4
2023-03-06T08:12:25.600Z,75.6
2023-03-06T08:14:25.722Z,75.6
2023-03-06T08:16:28.835Z,75.6
2023-03-06T08:18:25.650Z,75.8
2023-03-06T08:20:25.544Z,76.6
2023-03-06T08:22:25.380Z,76.6
2023-03-06T08:24:25.349Z,76.6
2023-03-06T08:26:27.204Z,76.8
2023-03-06T08:28:25.748Z,76.8
2023-03-06T08:30:25.224Z,76.8
2023-03-06T08:32:26.262Z,75.6
2023-03-06T08:34:25.697Z,76.3
2023-03-06T08:36:25.166Z,77.2
2023-03-06T08:38:25.166Z,77.2
2023-03-06T08:40:25.187Z,78.1
2023-03-06T08:42:25.110Z,79.4
2023-03-06T08:44:24.932Z,77.2
2023-03-06T08:46:28.200Z,78.6
2023-03-06T08:48:25.612Z,77.7
2023-03-06T08:50:25.067Z,77.7
2023-03-06T08:52:24.880Z,77.2
2023-03-06T08:54:24.791Z,76.6
2023-03-06T08:56:26.622Z,77.7
2023-03-06T08:58:24.792Z,77.7
2023-03-06T09:00:25.274Z,77.2
2023-03-06T09:02:24.685Z,76.8
2023-03-06T09:04:24.719Z,76
2023-03-06T09:06:26.413Z,76.7
2023-03-06T09:08:24.435Z,76.6
2023-03-06T09:10:25.597Z,74.9
2023-03-06T09:12:25.639Z,73.8
2023-03-06T09:14:24.353Z,73.8
2023-03-06T09:16:24.942Z,74.8
2023-03-06T09:18:24.280Z,72.4
2023-03-06T09:20:24.251Z,73.9
2023-03-06T09:22:24.463Z,72.6
2023-03-06T09:24:24.193Z,71.6
2023-03-06T09:26:32.725Z,73.6
2023-03-06T09:28:25.132Z,73.5
2023-03-06T09:30:24.227Z,71.6
2023-03-06T09:32:24.499Z,71.5
2023-03-06T09:34:24.119Z,74.6
2023-03-06T09:36:24.271Z,72.1
2023-03-06T09:38:27.143Z,73.2
2023-03-06T09:40:38.335Z,71.8
2023-03-06T09:42:24.819Z,72.6
2023-03-06T09:44:26.941Z,72
2023-03-06T09:46:30.705Z,72.8
2023-03-06T09:48:32.147Z,72.8
2023-03-06T09:50:30.079Z,73.9
2023-03-06T09:52:32.731Z,75.8
2023-03-06T09:54:33.915Z,76
2023-03-06T09:56:26.990Z,75.1
2023-03-06T09:58:26.292Z,75.6
2023-03-06T10:00:27.946Z,76.1
2023-03-06T10:02:32.600Z,75.6
2023-03-06T10:04:35.519Z,76.3
2023-03-06T10:06:27.955Z,74.7
2023-03-06T10:08:29.897Z,74.2
2023-03-06T10:10:27.334Z,73.4
2023-03-06T10:12:25.961Z,73.2
2023-03-06T10:14:34.542Z,75.1
2023-03-06T10:16:28.700Z,72.9
2023-03-06T10:18:23.852Z,74.5
2023-03-06T10:20:26.063Z,74.5
2023-03-06T10:22:28.686Z,73.4
2023-03-06T10:24:38.332Z,75.1
2023-03-06T10:26:25.900Z,77
2023-03-06T10:28:29.635Z,76.3
2023-03-06T10:30:32.888Z,76.3
2023-03-06T10:32:34.231Z,76.5
2023-03-06T10:34:29.987Z,76.5
2023-03-06T10:36:25.842Z,77.3
2023-03-06T10:38:25.279Z,77.3
2023-03-06T10:40:34.646Z,75.9
2023-03-06T10:42:24.569Z,77.4
2023-03-06T10:44:24.554Z,79.7
2023-03-06T10:46:28.925Z,78.5
2023-03-06T10:48:25.437Z,77.9
2023-03-06T10:50:26.351Z,77.8
2023-03-06T10:52:23.495Z,77.5
2023-03-06T10:54:23.551Z,77.7
2023-03-06T10:56:30.453Z,77.1
2023-03-06T10:58:25.854Z,76.8
2023-03-06T11:00:27.922Z,77.3
2023-03-06T11:02:27.616Z,76.8
2023-03-06T11:04:27.343Z,77.4
2023-03-06T11:06:32.514Z,76.4
2023-03-06T11:08:23.519Z,77.1
2023-03-06T11:10:23.326Z,77.1
2023-03-06T11:12:26.772Z,75.5
2023-03-06T11:14:23.060Z,76.2
2023-03-06T11:16:26.763Z,77.1
2023-03-06T11:18:28.818Z,76.6
2023-03-06T11:20:26.048Z,76.5
2023-03-06T11:22:22.808Z,75.3
2023-03-06T11:24:23.452Z,76.1
2023-03-06T11:26:36.433Z,78
2023-03-06T11:28:28.165Z,79.9
2023-03-06T11:30:26.947Z,82.1
2023-03-06T11:32:28.162Z,83.4
2023-03-06T11:34:33.920Z,84.2
2023-03-06T11:36:28.549Z,85
2023-03-06T11:38:30.365Z,86.6
2023-03-06T11:40:27.662Z,88.2
2023-03-06T11:42:27.388Z,87.4
2023-03-06T11:44:29.525Z,86.5
2023-03-06T11:46:27.666Z,85.3
2023-03-06T11:48:27.501Z,84.4
2023-03-06T11:50:30.452Z,84.4
2023-03-06T11:52:26.727Z,84.2
2023-03-06T11:54:22.192Z,84.1
2023-03-06T11:56:31.886Z,83.6
2023-03-06T11:58:40.306Z,83
2023-03-06T12:00:32.413Z,85.2
2023-03-06T12:02:37.222Z,85.2
2023-03-06T12:04:37.481Z,83.7
2023-03-06T12:06:33.049Z,83.7
2023-03-06T12:08:33.840Z,83.7
2023-03-06T12:10:25.487Z,83.7
2023-03-06T12:12:38.987Z,83.9
2023-03-06T12:14:33.296Z,81.5
2023-03-06T12:16:32.889Z,80.4
2023-03-06T12:18:33.918Z,79
2023-03-06T12:20:34.230Z,79
2023-03-06T12:22:35.905Z,78
2023-03-06T12:24:35.372Z,78
2023-03-06T12:26:38.245Z,79.2
2023-03-06T12:28:39.520Z,79.8
2023-03-06T12:30:35.143Z,79.4
2023-03-06T12:32:32.077Z,79
2023-03-06T12:34:34.651Z,79.9
2023-03-06T12:36:34.829Z,78.5
2023-03-06T12:38:44.108Z,78.1
2023-03-06T12:40:37.579Z,77.3
2023-03-06T12:42:33.650Z,78
2023-03-06T12:44:32.955Z,78
2023-03-06T12:46:21.458Z,78.7
2023-03-06T12:48:25.130Z,79.3
2023-03-06T12:50:24.825Z,77.8
2023-03-06T12:52:29.661Z,76.5
2023-03-06T12:54:23.234Z,76.7
2023-03-06T12:56:20.328Z,76.7
2023-03-06T12:58:34.971Z,76.7
2023-03-06T13:00:52.579Z,74.9
2023-03-06T13:02:44.615Z,75.6
2023-03-06T13:04:34.624Z,75.6
2023-03-06T13:06:45.058Z,75.6
2023-03-06T13:08:56.081Z,75
2023-03-06T13:10:24.869Z,75
2023-03-06T13:12:40.663Z,74.8
2023-03-06T13:14:23.454Z,75.7
2023-03-06T13:16:26.569Z,76.8
2023-03-06T13:18:48.596Z,76.8
2023-03-06T13:20:28.791Z,77.4
2023-03-06T13:22:27.242Z,77.7
2023-03-06T13:24:21.247Z,77.7
2023-03-06T13:26:47.903Z,78
2023-03-06T13:28:39.647Z,77.2
2023-03-06T13:30:24.041Z,77.2
2023-03-06T13:32:29.422Z,78.3
2023-03-06T13:34:36.192Z,77.2
2023-03-06T13:36:24.139Z,77.2
2023-03-06T13:38:32.277Z,75.9
2023-03-06T13:40:31.143Z,75.6
2023-03-06T13:42:26.852Z,76.6
2023-03-06T13:44:40.311Z,77.8
2023-03-06T13:46:22.420Z,77.8
2023-03-06T13:48:44.263Z,77.3
2023-03-06T13:50:32.870Z,77.4
2023-03-06T13:52:27.213Z,77.7
2023-03-06T13:54:31.387Z,76.5
2023-03-06T13:56:33.254Z,76.5
2023-03-06T13:58:32.530Z,77.2
2023-03-06T14:00:36.454Z,75.7
2023-03-06T14:02:40.407Z,76.2
2023-03-06T14:04:35.599Z,76.6
2023-03-06T14:06:47.022Z,77.6
2023-03-06T14:08:20.142Z,77
2023-03-06T14:10:22.896Z,77.6
2023-03-06T14:12:23.080Z,76.9
2023-03-06T14:14:19.777Z,77.8
2023-03-06T14:16:20.407Z,75.9
2023-03-06T14:18:22.406Z,75.9
2023-03-06T14:20:20.086Z,75.9
2023-03-06T14:22:21.752Z,77.1
2023-03-06T14:24:19.495Z,77.6
2023-03-06T14:26:20.184Z,77.6
2023-03-06T14:28:22.602Z,77.6
2023-03-06T14:30:20.286Z,76.9
2023-03-06T14:32:20.868Z,76.3
2023-03-06T14:34:21.076Z,78
2023-03-06T14:36:18.186Z,78
2023-03-06T14:38:16.210Z,77.5
2023-03-06T14:40:19.758Z,76.7
2023-03-06T14:42:18.478Z,77.7
2023-03-06T14:44:18.332Z,77.1
2023-03-06T14:46:19.629Z,77.8
2023-03-06T14:48:15.911Z,78.5
2023-03-06T14:50:21.439Z,77.8
2023-03-06T14:52:20.138Z,76.7
2023-03-06T14:54:18.528Z,78.4
2023-03-06T14:56:18.239Z,79
2023-03-06T14:58:19.283Z,78.3
2023-03-06T15:00:20.560Z,78.3
2023-03-06T15:02:20.636Z,78.3
2023-03-06T15:04:23.936Z,80.2
2023-03-06T15:06:19.547Z,80.2
2023-03-06T15:08:19.742Z,80.2
2023-03-06T15:10:21.676Z,80.2
2023-03-06T15:12:32.791Z,81.2
2023-03-06T15:14:18.834Z,81.9
2023-03-06T15:16:28.988Z,82.5
2023-03-06T15:18:30.186Z,83.3
2023-03-06T15:20:37.442Z,82.8
2023-03-06T15:22:26.139Z,84
2023-03-06T15:24:30.591Z,84
2023-03-06T15:26:22.668Z,84
2023-03-06T15:28:27.221Z,84
2023-03-06T15:30:22.989Z,84
2023-03-06T15:32:22.149Z,83.7
2023-03-06T15:34:16.866Z,83.7
2023-03-06T15:36:20.519Z,85.5
2023-03-06T15:38:33.878Z,84.5
2023-03-06T15:40:18.579Z,83.4
2023-03-06T15:42:17.329Z,83.4
2023-03-06T15:44:14.048Z,84
2023-03-06T15:46:12.529Z,84
2023-03-06T15:48:17.020Z,84.6
2023-03-06T15:50:14.494Z,84.6
2023-03-06T15:52:11.633Z,84.7
2023-03-06T15:54:12.809Z,84.7
2023-03-06T15:56:11.948Z,84.7
2023-03-06T15:58:16.539Z,85.6
2023-03-06T16:00:27.373Z,84.5
2023-03-06T16:02:15.414Z,88.8
2023-03-06T16:04:10.740Z,92.4
2023-03-06T16:06:16.118Z,92.4
2023-03-06T16:08:10.564Z,92.4
2023-03-06T16:10:13.198Z,92.4
2023-03-06T16:12:15.372Z,93.1
2023-03-06T16:14:17.157Z,93.1
2023-03-06T16:16:16.205Z,93.1
2023-03-06T16:18:11.504Z,93.1
2023-03-06T16:20:13.873Z,93.1
2023-03-06T16:22:09.647Z,93.3
2023-03-06T16:24:10.417Z,93.3
2023-03-06T16:26:17.912Z,93.3
2023-03-06T16:28:12.145Z,93.3
2023-03-06T16:30:16.575Z,93.3
2023-03-06T16:32:10.369Z,93.1
2023-03-06T16:34:08.685Z,93.1
2023-03-06T16:36:13.094Z,93.1
2023-03-06T16:38:09.827Z,92.5
2023-03-06T16:40:17.491Z,92.5
2023-03-06T16:42:08.121Z,92.6
2023-03-06T16:44:08.176Z,92.6
2023-03-06T16:46:14.840Z,92.3
2023-03-06T16:48:13.622Z,92.3
2023-03-06T16:50:21.223Z,92.3
2023-03-06T16:52:09.157Z,92.5
2023-03-06T16:54:07.143Z,92.5
2023-03-06T16:56:10.256Z,92.5
2023-03-06T16:58:07.435Z,92.5
2023-03-06T17:00:08.965Z,92.5
2023-03-06T17:02:06.688Z,92
2023-03-06T17:04:06.511Z,91.6
2023-03-06T17:06:13.156Z,92.2
2023-03-06T17:08:06.226Z,92.2
2023-03-06T17:10:09.116Z,92.2
2023-03-06T17:12:06.326Z,92.9
2023-03-06T17:14:05.899Z,92.9
2023-03-06T17:16:07.162Z,91.7
2023-03-06T17:18:05.760Z,91.7
2023-03-06T17:20:07.283Z,91.7
2023-03-06T17:22:05.354Z,92
2023-03-06T17:24:05.774Z,92
2023-03-06T17:26:07.468Z,90.6
2023-03-06T17:28:04.840Z,90.6
2023-03-06T17:30:06.074Z,90.6
2023-03-06T17:32:04.651Z,91.1
2023-03-06T17:34:04.429Z,89.6
2023-03-06T17:36:04.820Z,90.4
2023-03-06T17:38:03.973Z,90.2
2023-03-06T17:40:08.171Z,88.7
2023-03-06T17:42:05.144Z,87.9
2023-03-06T17:44:03.943Z,88.3
2023-03-06T17:46:03.815Z,89.5
2023-03-06T17:48:03.605Z,88.8
2023-03-06T17:50:04.001Z,88.8
2023-03-06T17:52:03.082Z,89.6
2023-03-06T17:54:03.550Z,89.6
2023-03-06T17:56:03.915Z,89.6
2023-03-06T17:58:02.665Z,89.6
2023-03-06T18:00:12.688Z,89.4
2023-03-06T18:02:02.795Z,90.5
2023-03-06T18:04:02.519Z,89.9
2023-03-06T18:06:03.797Z,89.9
2023-03-06T18:08:02.150Z,90.4
2023-03-06T18:10:01.952Z,90.7
2023-03-06T18:12:01.712Z,90.4
2023-03-06T18:14:02.869Z,90.2
2023-03-06T18:16:02.042Z,90.2
2023-03-06T18:18:01.231Z,90.2
2023-03-06T18:20:01.457Z,90.7
2023-03-06T18:22:00.975Z,91.1
2023-03-06T18:24:00.827Z,91.2
2023-03-06T18:26:10.527Z,91.2
2023-03-06T18:28:00.472Z,91.2
2023-03-06T18:30:00.826Z,91.2
2023-03-06T18:32:00.304Z,91.4
2023-03-06T18:34:03.000Z,91.4
2023-03-06T18:36:00.977Z,91.7
2023-03-06T18:37:59.785Z,91.7
2023-03-06T18:39:59.493Z,91.1
2023-03-06T18:41:59.317Z,91.5
2023-03-06T18:44:00.962Z,91.5
2023-03-06T18:45:59.095Z,91.5
2023-03-06T18:47:58.913Z,91.6
2023-03-06T18:49:58.781Z,91.6
2023-03-06T18:51:58.496Z,91.4
2023-03-06T18:53:59.773Z,91.4
2023-03-06T18:55:58.335Z,91.1
2023-03-06T18:57:58.086Z,91.1
2023-03-06T18:59:58.352Z,91.6
2023-03-06T19:01:57.902Z,92.7
2023-03-06T19:03:59.579Z,91.4
2023-03-06T19:05:57.479Z,91.4
2023-03-06T19:07:57.423Z,91.3
2023-03-06T19:09:57.200Z,91.3
2023-03-06T19:11:57.988Z,91.4
2023-03-06T19:13:56.873Z,91.2
2023-03-06T19:15:56.925Z,91.2
2023-03-06T19:17:56.761Z,91.2
2023-03-06T19:19:56.435Z,91.2
2023-03-06T19:21:57.710Z,91.2
2023-03-06T19:23:56.715Z,91.3
2023-03-06T19:25:57.154Z,91.3
2023-03-06T19:27:55.742Z,91.3
2023-03-06T19:29:55.554Z,91.3
2023-03-06T19:31:55.421Z,91.4
2023-03-06T19:33:56.789Z,92
2023-03-06T19:35:55.021Z,91.2
2023-03-06T19:37:54.912Z,91.2
2023-03-06T19:39:54.733Z,91.2
2023-03-06T19:41:54.529Z,91.6
2023-03-06T19:43:56.485Z,91.4
2023-03-06T19:45:55.422Z,91.4
2023-03-06T19:47:54.050Z,91.2
2023-03-06T19:49:53.868Z,92.2
2023-03-06T19:51:53.656Z,91.6
2023-03-06T19:53:53.694Z,90.8
2023-03-06T19:56:02.115Z,90.8
2023-03-06T19:57:53.505Z,90.8
2023-03-06T19:59:53.020Z,90.8
2023-03-06T20:01:52.880Z,91.6
2023-03-06T20:03:54.056Z,91.2
2023-03-06T20:05:52.464Z,91.2
2023-03-06T20:07:52.736Z,91.2
2023-03-06T20:09:52.251Z,91.2
2023-03-06T20:11:52.081Z,91.2
2023-03-06T20:13:52.748Z,91.2
2023-03-06T20:15:52.106Z,91.2
2023-03-06T20:17:51.456Z,91.7
2023-03-06T20:19:51.391Z,91.1
2023-03-06T20:21:51.137Z,91.5
2023-03-06T20:23:52.241Z,91.7
2023-03-06T20:25:50.716Z,91.7
2023-03-06T20:27:50.622Z,91.5
2023-03-06T20:29:50.310Z,92.5
2023-03-06T20:31:52.854Z,91.2
2023-03-06T20:33:52.126Z,91.2
2023-03-06T20:35:49.791Z,91.9
2023-03-06T20:37:49.512Z,91.9
2023-03-06T20:39:49.370Z,91.9
2023-03-06T20:41:49.568Z,91.4
2023-03-06T20:43:49.691Z,90.7
2023-03-06T20:45:56.028Z,91.5
2023-03-06T20:47:48.578Z,91.5
2023-03-06T20:49:48.373Z,90.9
2023-03-06T20:51:48.187Z,91.9
2023-03-06T20:53:49.611Z,91.9
2023-03-06T20:55:49.972Z,92.3
2023-03-06T20:57:48.805Z,91.4
2023-03-06T20:59:47.408Z,91.4
2023-03-06T21:01:47.302Z,92.9
2023-03-06T21:03:47.849Z,91.4
2023-03-06T21:05:47.270Z,91.4
2023-03-06T21:07:46.661Z,91.4
2023-03-06T21:09:46.536Z,91.4
2023-03-06T21:11:46.766Z,91.2
2023-03-06T21:13:46.196Z,91.2
2023-03-06T21:15:46.041Z,91.2
2023-03-06T21:17:45.777Z,91.2
2023-03-06T21:19:45.894Z,91.2
2023-03-06T21:21:45.340Z,91.4
2023-03-06T21:23:46.210Z,91.4
2023-03-06T21:25:46.862Z,91.4
2023-03-06T21:27:44.783Z,91.4
2023-03-06T21:29:44.742Z,90.8
2023-03-06T21:31:45.019Z,91.7
2023-03-06T21:33:46.298Z,90.7
2023-03-06T21:35:44.700Z,91.3
2023-03-06T21:37:44.006Z,91.3
2023-03-06T21:39:43.695Z,91.3
2023-03-06T21:41:43.640Z,91
2023-03-06T21:43:43.701Z,91
2023-03-06T21:45:43.782Z,92.3
2023-03-06T21:47:43.237Z,90.6
2023-03-06T21:49:42.830Z,91.3
2023-03-06T21:51:42.548Z,91.2
2023-03-06T21:53:44.074Z,91.2
2023-03-06T21:55:42.255Z,91.2
2023-03-06T21:57:42.402Z,91.2
2023-03-06T21:59:41.815Z,91.2
2023-03-06T22:01:41.588Z,90.8
2023-03-06T22:03:41.564Z,91.9
2023-03-06T22:05:41.437Z,90.4
2023-03-06T22:07:41.405Z,91.3
2023-03-06T22:09:40.941Z,91.1
2023-03-06T22:11:40.875Z,90.5
2023-03-06T22:13:40.770Z,90.5
2023-03-06T22:15:48.174Z,91.3
2023-03-06T22:17:40.429Z,91.3
2023-03-06T22:19:39.978Z,90
2023-03-06T22:21:39.764Z,91
2023-03-06T22:23:40.319Z,89.7
2023-03-06T22:25:39.553Z,91
2023-03-06T22:27:39.230Z,90.3
2023-03-06T22:29:39.109Z,91.1
2023-03-06T22:31:40.348Z,89.8
2023-03-06T22:33:38.953Z,89.8
2023-03-06T22:35:38.499Z,89.8
2023-03-06T22:37:38.173Z,90.9
2023-03-06T22:39:38.218Z,90.4
2023-03-06T22:41:38.407Z,90.5
2023-03-06T22:43:38.090Z,91.1
2023-03-06T22:45:37.467Z,91.1
2023-03-06T22:47:37.355Z,89.8
2023-03-06T22:49:37.345Z,90.4
2023-03-06T22:51:37.687Z,91.4
2023-03-06T22:53:37.090Z,89.2
2023-03-06T22:55:36.616Z,90
2023-03-06T22:57:36.470Z,90
2023-03-06T22:59:36.334Z,90.4
2023-03-06T23:01:36.437Z,89.7
2023-03-06T23:03:36.666Z,89.8
2023-03-06T23:05:40.092Z,89.7
2023-03-06T23:07:35.375Z,89.6
2023-03-06T23:09:50.170Z,90.3
2023-03-06T23:11:50.367Z,90.3
2023-03-06T23:13:49.911Z,90.3
2023-03-06T23:15:50.497Z,90.3
2023-03-06T23:17:49.568Z,89.7
2023-03-06T23:19:49.357Z,89.7
2023-03-06T23:21:49.576Z,90.5
2023-03-06T23:23:34.575Z,90.5
2023-03-06T23:25:33.824Z,90.5
2023-03-06T23:27:35.371Z,89.8
2023-03-06T23:29:33.416Z,90.4
2023-03-06T23:31:33.241Z,89.6
2023-03-06T23:33:33.072Z,90.6
2023-03-06T23:35:33.570Z,90.6
2023-03-06T23:37:32.720Z,89.8
2023-03-06T23:39:32.594Z,89.7
2023-03-06T23:41:32.260Z,89.7
2023-03-06T23:43:32.330Z,91.1
2023-03-06T23:45:32.210Z,89.8
2023-03-06T23:47:32.739Z,89.8
2023-03-06T23:49:31.531Z,90.4
2023-03-06T23:51:31.342Z,89.8
2023-03-06T23:53:31.130Z,89.9
2023-03-06T23:55:30.972Z,89.9
2023-03-06T23:57:30.987Z,89.3
2023-03-06T23:59:30.472Z,89.8
